createdAt,value
2019-06-15T00:02:06.161Z,76.75
2019-06-15T00:07:00.759Z,77.83
2019-06-15T00:11:55.358Z,77.75
2019-06-15T00:16:49.931Z,74.30
2019-06-15T00:21:44.532Z,74.21
2019-06-15T00:26:39.282Z,74.89
2019-06-15T00:31:33.914Z,76.35
2019-06-15T00:36:28.509Z,73.99
2019-06-15T00:41:23.098Z,72.58
2019-06-15T00:46:17.765Z,71.64
2019-06-15T00:51:12.376Z,70.12
2019-06-15T00:56:07.049Z,66.67
2019-06-15T01:01:01.629Z,63.71
2019-06-15T01:05:57.069Z,64.81
2019-06-15T01:10:51.660Z,67.97
2019-06-15T01:15:46.273Z,69.68
2019-06-15T01:20:40.891Z,69.92
2019-06-15T01:25:35.433Z,69.90
2019-06-15T01:30:30.027Z,71.02
2019-06-15T01:35:24.593Z,71.03
2019-06-15T01:40:19.702Z,71.66
2019-06-15T01:45:15.983Z,71.73
2019-06-15T01:50:11.899Z,71.65
2019-06-15T01:55:19.961Z,72.41
2019-06-15T02:00:09.794Z,73.95
2019-06-15T02:05:08.376Z,74.08
2019-06-15T02:10:03.245Z,76.49
2019-06-15T02:14:57.839Z,75.90
2019-06-15T02:19:52.449Z,79.50
2019-06-15T02:24:47.016Z,80.75
2019-06-15T02:29:41.634Z,76.64
2019-06-15T02:34:36.206Z,77.08
2019-06-15T02:39:30.801Z,79.07
2019-06-15T02:44:25.385Z,80.31
2019-06-15T02:49:19.988Z,81.23
2019-06-15T02:54:14.559Z,81.79
2019-06-15T02:59:09.232Z,78.58
2019-06-15T03:04:03.975Z,71.22
2019-06-15T03:08:59.399Z,71.79
2019-06-15T03:13:54.733Z,71.58
2019-06-15T03:18:49.419Z,73.17
2019-06-15T03:23:43.987Z,75.19
2019-06-15T03:28:38.596Z,74.78
2019-06-15T03:33:33.182Z,75.84
2019-06-15T03:38:27.786Z,76.26
2019-06-15T03:43:22.439Z,77.55
2019-06-15T03:48:17.038Z,78.49
2019-06-15T03:53:11.614Z,78.48
2019-06-15T03:58:06.635Z,78.30
2019-06-15T04:03:01.240Z,79.09
2019-06-15T04:07:55.880Z,78.71
2019-06-15T04:12:50.629Z,79.04
2019-06-15T04:17:45.244Z,78.81
2019-06-15T04:22:39.843Z,79.50
2019-06-15T04:27:34.426Z,78.37
2019-06-15T04:32:29.019Z,75.18
2019-06-15T04:37:23.634Z,71.69
2019-06-15T04:42:18.293Z,67.71
2019-06-15T04:47:12.883Z,64.54
2019-06-15T04:52:07.466Z,63.46
2019-06-15T04:57:02.047Z,65.94
2019-06-15T05:01:56.628Z,68.07
2019-06-15T05:06:51.234Z,69.72
2019-06-15T05:11:45.832Z,69.75
2019-06-15T05:16:40.424Z,71.14
2019-06-15T05:21:35.020Z,69.93
2019-06-15T05:26:29.594Z,63.46
2019-06-15T05:31:24.194Z,56.41
2019-06-15T05:36:18.765Z,53.28
2019-06-15T05:41:15.733Z,52.04
2019-06-15T05:46:09.671Z,52.61
2019-06-15T05:51:04.597Z,56.69
2019-06-15T05:55:59.194Z,58.87
2019-06-15T06:00:53.787Z,58.09
2019-06-15T06:05:48.408Z,55.84
2019-06-15T06:10:43.013Z,56.82
2019-06-15T06:15:37.719Z,58.39
2019-06-15T06:20:32.350Z,56.50
2019-06-15T06:25:26.949Z,53.24
2019-06-15T06:30:21.848Z,50.34
2019-06-15T06:35:16.622Z,49.97
2019-06-15T06:40:14.111Z,51.40
2019-06-15T06:45:11.395Z,52.82
2019-06-15T06:50:10.191Z,54.37
2019-06-15T06:55:07.854Z,54.83
2019-06-15T07:00:02.525Z,54.39
2019-06-15T07:04:57.095Z,53.33
2019-06-15T07:09:51.734Z,53.35
2019-06-15T07:14:46.332Z,53.03
2019-06-15T07:19:40.916Z,55.13
2019-06-15T07:24:35.489Z,54.65
2019-06-15T07:29:30.097Z,54.19
2019-06-15T07:34:24.687Z,53.78
2019-06-15T07:39:19.295Z,53.61
2019-06-15T07:44:13.931Z,52.71
2019-06-15T07:49:08.538Z,51.89
2019-06-15T07:54:03.143Z,51.60
2019-06-15T07:58:57.717Z,52.00
2019-06-15T08:03:52.318Z,53.29
2019-06-15T08:08:46.908Z,53.15
2019-06-15T08:13:41.486Z,53.32
2019-06-15T08:18:36.080Z,53.67
2019-06-15T08:23:30.655Z,53.05
2019-06-15T08:28:39.562Z,52.92
2019-06-15T08:33:21.602Z,54.34
2019-06-15T08:38:16.166Z,52.33
2019-06-15T08:43:10.924Z,51.88
2019-06-15T08:48:05.826Z,51.34
2019-06-15T08:53:00.395Z,50.96
2019-06-15T08:57:54.987Z,51.73
2019-06-15T09:02:49.649Z,51.83
2019-06-15T09:07:44.256Z,52.15
2019-06-15T09:12:38.823Z,52.12
2019-06-15T09:17:33.419Z,52.26
2019-06-15T09:22:27.991Z,51.94
2019-06-15T09:27:22.579Z,51.58
2019-06-15T09:32:17.182Z,51.62
2019-06-15T09:37:11.755Z,49.71
2019-06-15T09:42:06.427Z,48.91
2019-06-15T09:47:01.014Z,48.01
2019-06-15T09:51:55.610Z,48.28
2019-06-15T09:56:50.184Z,47.69
2019-06-15T10:01:44.779Z,47.28
2019-06-15T10:06:39.369Z,46.02
2019-06-15T10:11:34.030Z,47.19
2019-06-15T10:16:28.622Z,46.63
2019-06-15T10:21:23.267Z,45.74
2019-06-15T10:26:17.860Z,46.18
2019-06-15T10:31:12.442Z,46.21
2019-06-15T10:36:09.676Z,46.68
2019-06-15T10:41:03.430Z,47.22
2019-06-15T10:45:58.018Z,45.54
2019-06-15T10:50:52.705Z,45.37
2019-06-15T10:55:47.305Z,45.71
2019-06-15T11:00:42.654Z,46.32
2019-06-15T11:05:39.016Z,45.51
2019-06-15T11:10:46.987Z,45.12
2019-06-15T11:15:42.196Z,43.96
2019-06-15T11:20:36.835Z,44.83
2019-06-15T11:25:31.473Z,44.65
2019-06-15T11:30:26.060Z,45.43
2019-06-15T11:35:20.688Z,45.69
2019-06-15T11:40:15.493Z,46.41
2019-06-15T11:45:10.576Z,46.43
2019-06-15T11:50:07.244Z,45.00
2019-06-15T11:55:01.794Z,45.91
2019-06-15T11:59:56.386Z,45.26
2019-06-15T12:04:58.485Z,43.23
2019-06-15T12:09:47.281Z,41.89
2019-06-15T12:14:41.863Z,40.32
2019-06-15T12:19:36.478Z,40.58
2019-06-15T12:24:31.048Z,41.16
2019-06-15T12:29:25.707Z,39.91
2019-06-15T12:34:21.198Z,38.74
2019-06-15T12:39:15.868Z,39.51
2019-06-15T12:44:10.470Z,40.06
2019-06-15T12:49:05.075Z,41.27
2019-06-15T12:53:59.659Z,41.71
2019-06-15T12:58:54.247Z,41.97
2019-06-15T13:03:48.852Z,40.95
2019-06-15T13:08:43.536Z,41.03
2019-06-15T13:13:38.132Z,40.89
2019-06-15T13:18:32.797Z,40.00
2019-06-15T13:23:27.381Z,38.59
2019-06-15T13:28:21.978Z,40.04
2019-06-15T13:33:16.561Z,38.74
2019-06-15T13:38:11.163Z,37.92
2019-06-15T13:43:05.832Z,38.07
2019-06-15T13:48:00.439Z,39.38
2019-06-15T13:52:55.021Z,37.73
2019-06-15T13:57:49.623Z,37.67
2019-06-15T14:02:44.199Z,38.43
2019-06-15T14:07:38.800Z,38.33
2019-06-15T14:12:33.386Z,38.87
2019-06-15T14:17:27.990Z,39.08
2019-06-15T14:22:22.645Z,38.81
2019-06-15T14:27:17.270Z,38.16
2019-06-15T14:32:11.856Z,37.59
2019-06-15T14:37:06.597Z,38.37
2019-06-15T14:42:01.168Z,37.83
2019-06-15T14:46:55.810Z,37.55
2019-06-15T14:51:51.157Z,37.71
2019-06-15T14:56:46.080Z,37.64
2019-06-15T15:01:40.660Z,38.51
2019-06-15T15:06:36.844Z,38.79
2019-06-15T15:11:31.727Z,38.75
2019-06-15T15:16:26.318Z,39.43
2019-06-15T15:21:20.996Z,39.70
2019-06-15T15:26:17.102Z,41.40
2019-06-15T15:31:11.857Z,40.50
2019-06-15T15:36:07.184Z,40.82
2019-06-15T15:41:02.085Z,40.74
2019-06-15T15:45:56.661Z,39.82
2019-06-15T15:50:51.307Z,40.04
2019-06-15T15:55:46.760Z,39.61
2019-06-15T16:00:41.766Z,40.33
2019-06-15T16:05:37.103Z,40.24
2019-06-15T16:10:32.002Z,40.11
2019-06-15T16:15:26.689Z,40.49
2019-06-15T16:20:21.253Z,43.12
2019-06-15T16:25:17.385Z,43.49
2019-06-15T16:30:13.382Z,45.23
2019-06-15T16:35:09.467Z,45.42
2019-06-15T16:40:06.661Z,46.52
2019-06-15T16:45:01.264Z,46.04
2019-06-15T16:49:56.727Z,45.60
2019-06-15T16:54:51.718Z,46.09
2019-06-15T16:59:46.795Z,45.58
2019-06-15T17:04:41.822Z,46.47
2019-06-15T17:09:36.409Z,47.51
2019-06-15T17:14:31.039Z,47.56
2019-06-15T17:19:26.913Z,47.60
2019-06-15T17:24:21.695Z,47.52
2019-06-15T17:29:16.487Z,47.57
2019-06-15T17:34:11.305Z,47.99
2019-06-15T17:39:08.871Z,49.04
2019-06-15T17:44:05.928Z,49.46
2019-06-15T17:48:59.974Z,50.06
2019-06-15T17:53:56.360Z,50.61
2019-06-15T17:58:51.101Z,50.37
2019-06-15T18:03:54.002Z,51.08
2019-06-15T18:08:42.071Z,52.88
2019-06-15T18:13:37.248Z,53.02
2019-06-15T18:18:31.885Z,53.56
2019-06-15T18:23:26.471Z,53.43
2019-06-15T18:28:21.141Z,54.00
2019-06-15T18:33:16.670Z,55.76
2019-06-15T18:38:11.224Z,56.93
2019-06-15T18:43:07.248Z,57.04
2019-06-15T18:48:02.317Z,56.82
2019-06-15T18:52:56.970Z,56.58
2019-06-15T18:57:51.566Z,56.27
2019-06-15T19:02:46.171Z,56.78
2019-06-15T19:07:40.779Z,67.80
2019-06-15T19:12:35.364Z,82.56
2019-06-15T19:17:29.962Z,91.30
2019-06-15T19:22:26.984Z,100.00
2019-06-15T19:27:20.892Z,100.00
2019-06-15T19:32:17.216Z,99.27
2019-06-15T19:37:11.948Z,95.78
2019-06-15T19:42:16.396Z,94.25
2019-06-15T19:47:10.981Z,95.16
2019-06-15T19:52:06.639Z,96.05
2019-06-15T19:57:01.707Z,96.81
2019-06-15T20:01:56.310Z,96.61
2019-06-15T20:06:50.897Z,96.58
2019-06-15T20:11:46.919Z,95.71
2019-06-15T20:16:41.853Z,94.87
2019-06-15T20:21:37.456Z,96.01
2019-06-15T20:26:32.229Z,94.24
2019-06-15T20:31:26.860Z,95.38
2019-06-15T20:36:21.440Z,94.51
2019-06-15T20:41:16.429Z,92.41
2019-06-15T20:46:11.035Z,92.06
2019-06-15T20:51:09.741Z,94.06
2019-06-15T20:56:02.176Z,93.92
2019-06-15T21:00:56.800Z,95.95
2019-06-15T21:05:51.392Z,96.83
2019-06-15T21:10:46.450Z,97.43
2019-06-15T21:15:47.408Z,96.70
2019-06-15T21:20:42.111Z,95.37
2019-06-15T21:25:36.710Z,96.58
2019-06-15T21:30:31.290Z,97.44
2019-06-15T21:35:26.817Z,97.50
2019-06-15T21:40:21.894Z,97.43
2019-06-15T21:45:16.531Z,92.85
2019-06-15T21:50:11.460Z,91.92
2019-06-15T21:55:10.659Z,90.71
2019-06-15T22:00:17.181Z,92.93
2019-06-15T22:05:10.709Z,92.30
2019-06-15T22:10:10.268Z,94.05
2019-06-15T22:15:10.382Z,93.97
2019-06-15T22:20:08.171Z,91.97
2019-06-15T22:25:02.759Z,90.88
2019-06-15T22:29:57.356Z,91.13
2019-06-15T22:34:51.928Z,91.52
2019-06-15T22:39:46.721Z,89.70
2019-06-15T22:44:41.395Z,91.23
2019-06-15T22:49:36.170Z,91.28
2019-06-15T22:54:30.799Z,90.12
2019-06-15T22:59:26.002Z,91.45
2019-06-15T23:04:20.673Z,92.32
2019-06-15T23:09:16.678Z,93.49
2019-06-15T23:14:11.301Z,93.28
2019-06-15T23:19:07.834Z,93.17
2019-06-15T23:24:02.226Z,93.03
2019-06-15T23:28:56.799Z,91.42
2019-06-15T23:33:51.440Z,91.93
2019-06-15T23:38:46.467Z,91.93
2019-06-15T23:43:41.212Z,90.74
2019-06-15T23:48:36.457Z,92.40
2019-06-15T23:53:31.155Z,93.43
2019-06-15T23:58:26.346Z,94.20
